Maugansville, MD

01:58 EDT le 01 novembre 2014 (GMT -0400)
Hagerstown Regional-Henson | Change Station
CLOSE
Current Station
Aéroport
Location: Hagerstown,
Altitude: 705 ft
Stations météo à proximité

Alt. 705 ft 39.71 °N, 77.73 °W | Updated 1 hour ago

Couvert
Couvert
46 ° F
Paraît 42 ° F
N
7
Vent Variable Vent de Nord

Aujourd'hui
Haut(e) -- | Bas -- ° F
--% Risque de précip.
Hier
Haut(e) -- | Bas -- ° F
Precip. -- pouce
7:39 AM 6:08 PM
Lune gibbeuse croissante, 63% visible
Pression 29.88 pouce
Visibilité 10.0 Miles terrestres
Nuages Couvert 6000 ft
Refroidissement éolien 42 ° F
Point de rosée 37 ° F
Humidité 71%
Précipitations 0.00 pouce
Profondeur de la couche neigeuse Non disponible.
UV 0 sur 12
Pollen .10 sur 12
Qualité de l'air Non disponible.
Flu Activity Non disponible.
METAR KHGR 010453Z AUTO 35006KT 10SM OVC060 08/03 A2984 RMK AO2 SLP118 T00780028 401110056

More Conditions Fewer Conditions

Pression 29.88 pouce
Visibilité 10.0 Miles terrestres
Nuages Couvert 6000 ft
Refroidissement éolien 42 ° F
Point de rosée 37 ° F
Humidité 71%
Précipitations 0.00 pouce
Profondeur de la couche neigeuse Non disponible.
UV 0 sur 12
Pollen .10 sur 12
Qualité de l'air Non disponible.
Flu Activity Non disponible.
METAR KHGR 010453Z AUTO 35006KT 10SM OVC060 08/03 A2984 RMK AO2 SLP118 T00780028 401110056

More Conditions Fewer Conditions

10-Day Weather Forecast

Almanac

Astronomie

Nov. 01, 2014 Lever Coucher
Temps réel
Crépuscule civil
Crépuscule nautique
Crépuscule astronomique
Lune
Durée de lumière visible
Longueur du jour
Tomorrow will be .
, % of the Moon is Illuminated

Extrêmes aujourd'hui

State Highs State Lows

Community

WunderPhotos

Upload Photos

1,766,863 Photos téléchargées !

WunderBlogs® & News

Nearby

Qualité de l'air

  Qualité de l'air Indice de la qualité de l'air Polluant
Not available.

Épaisseur de neige

Station Depth Altitude

Activité sismique

Ville Distance Mag. Time & Date
Minimum magnitude displayed is 2.5.

Températures des eaux côtières

Lieu Température

Stations météo à proximité